sensor_id;sensor_type;location;lat;lon;timestamp;pressure;altitude;pressure_sealevel;temperature;humidity
83631;BME280;73593;52.134;5.426;2024-03-08T00:00:00;102023.06;;;1.40;86.51
83631;BME280;73593;52.134;5.426;2024-03-08T00:02:36;102027.47;;;1.38;86.45
83631;BME280;73593;52.134;5.426;2024-03-08T00:05:04;102024.06;;;1.36;86.39
83631;BME280;73593;52.134;5.426;2024-03-08T00:07:31;102023.31;;;1.30;86.46
83631;BME280;73593;52.134;5.426;2024-03-08T00:10:01;102019.84;;;1.28;86.38
83631;BME280;73593;52.134;5.426;2024-03-08T00:12:27;102012.06;;;1.27;86.22
83631;BME280;73593;52.134;5.426;2024-03-08T00:14:54;102012.16;;;1.22;86.71
83631;BME280;73593;52.134;5.426;2024-03-08T00:17:24;102014.00;;;1.19;86.35
83631;BME280;73593;52.134;5.426;2024-03-08T00:19:54;102009.69;;;1.16;86.11
83631;BME280;73593;52.134;5.426;2024-03-08T00:22:20;102009.78;;;1.13;86.49
83631;BME280;73593;52.134;5.426;2024-03-08T00:24:51;102015.06;;;1.12;86.43
83631;BME280;73593;52.134;5.426;2024-03-08T00:27:18;102007.25;;;1.10;86.50
83631;BME280;73593;52.134;5.426;2024-03-08T00:29:47;102015.09;;;1.08;86.42
83631;BME280;73593;52.134;5.426;2024-03-08T00:32:14;102003.03;;;1.04;86.47
83631;BME280;73593;52.134;5.426;2024-03-08T00:34:43;102010.97;;;1.00;86.42
83631;BME280;73593;52.134;5.426;2024-03-08T00:37:12;102003.19;;;0.97;86.57
83631;BME280;73593;52.134;5.426;2024-03-08T00:39:39;102001.47;;;0.96;86.49
83631;BME280;73593;52.134;5.426;2024-03-08T00:42:05;102005.88;;;0.94;86.35
83631;BME280;73593;52.134;5.426;2024-03-08T00:44:34;102000.72;;;0.91;86.26
83631;BME280;73593;52.134;5.426;2024-03-08T00:47:01;102006.84;;;0.90;86.72
83631;BME280;73593;52.134;5.426;2024-03-08T00:49:30;101994.72;;;0.87;86.44
83631;BME280;73593;52.134;5.426;2024-03-08T00:51:57;101994.75;;;0.86;86.66
83631;BME280;73593;52.134;5.426;2024-03-08T00:54:26;101997.34;;;0.87;86.52
83631;BME280;73593;52.134;5.426;2024-03-08T00:56:53;101997.34;;;0.86;86.71
83631;BME280;73593;52.134;5.426;2024-03-08T00:59:19;101986.13;;;0.84;86.32
83631;BME280;73593;52.134;5.426;2024-03-08T01:01:46;101974.88;;;0.82;86.70
83631;BME280;73593;52.134;5.426;2024-03-08T01:04:13;101982.72;;;0.80;86.66
83631;BME280;73593;52.134;5.426;2024-03-08T01:06:40;101974.97;;;0.77;86.42
83631;BME280;73593;52.134;5.426;2024-03-08T01:09:07;101975.84;;;0.76;86.83
83631;BME280;73593;52.134;5.426;2024-03-08T01:11:33;101963.72;;;0.75;86.54
83631;BME280;73593;52.134;5.426;2024-03-08T01:14:03;101960.25;;;0.74;86.92
83631;BME280;73593;52.134;5.426;2024-03-08T01:16:30;101953.31;;;0.73;86.74
83631;BME280;73593;52.134;5.426;2024-03-08T01:18:58;101955.09;;;0.71;86.50
83631;BME280;73593;52.134;5.426;2024-03-08T01:21:29;101950.81;;;0.69;86.93
83631;BME280;73593;52.134;5.426;2024-03-08T01:23:58;101949.13;;;0.68;86.90
83631;BME280;73593;52.134;5.426;2024-03-08T01:26:25;101938.72;;;0.66;86.79
83631;BME280;73593;52.134;5.426;2024-03-08T01:28:55;101942.25;;;0.64;86.57
83631;BME280;73593;52.134;5.426;2024-03-08T01:31:21;101938.78;;;0.63;86.55
83631;BME280;73593;52.134;5.426;2024-03-08T01:33:50;101939.78;;;0.58;86.69
83631;BME280;73593;52.134;5.426;2024-03-08T01:36:17;101931.16;;;0.54;86.83
83631;BME280;73593;52.134;5.426;2024-03-08T01:38:45;101932.09;;;0.51;86.76
83631;BME280;73593;52.134;5.426;2024-03-08T01:41:14;101926.91;;;0.50;86.56
83631;BME280;73593;52.134;5.426;2024-03-08T01:43:44;101920.88;;;0.48;86.56
83631;BME280;73593;52.134;5.426;2024-03-08T01:46:19;101912.28;;;0.43;86.34
83631;BME280;73593;52.134;5.426;2024-03-08T01:48:50;101918.44;;;0.40;86.77
83631;BME280;73593;52.134;5.426;2024-03-08T01:51:18;101914.16;;;0.38;86.37
83631;BME280;73593;52.134;5.426;2024-03-08T01:53:46;101915.91;;;0.37;86.70
83631;BME280;73593;52.134;5.426;2024-03-08T01:56:16;101913.31;;;0.36;86.85
83631;BME280;73593;52.134;5.426;2024-03-08T01:58:44;101904.69;;;0.34;86.71
83631;BME280;73593;52.134;5.426;2024-03-08T02:01:14;101914.28;;;0.32;86.48
83631;BME280;73593;52.134;5.426;2024-03-08T02:03:42;101903.97;;;0.27;86.74
83631;BME280;73593;52.134;5.426;2024-03-08T02:06:14;101904.84;;;0.26;86.86
83631;BME280;73593;52.134;5.426;2024-03-08T02:08:44;101903.16;;;0.23;86.41
83631;BME280;73593;52.134;5.426;2024-03-08T02:11:12;101901.47;;;0.21;86.85
83631;BME280;73593;52.134;5.426;2024-03-08T02:13:39;101899.78;;;0.20;86.84
83631;BME280;73593;52.134;5.426;2024-03-08T02:16:06;101905.03;;;0.17;86.64
83631;BME280;73593;52.134;5.426;2024-03-08T02:18:37;101892.94;;;0.14;86.12
83631;BME280;73593;52.134;5.426;2024-03-08T02:21:06;101896.44;;;0.12;86.82
83631;BME280;73593;52.134;5.426;2024-03-08T02:23:37;101895.63;;;0.10;86.32
83631;BME280;73593;52.134;5.426;2024-03-08T02:26:04;101881.81;;;0.06;86.06
83631;BME280;73593;52.134;5.426;2024-03-08T02:28:31;101884.41;;;0.06;86.64
83631;BME280;73593;52.134;5.426;2024-03-08T02:31:00;101878.38;;;0.04;86.71
83631;BME280;73593;52.134;5.426;2024-03-08T02:33:34;101875.81;;;0.03;86.80
83631;BME280;73593;52.134;5.426;2024-03-08T02:36:01;101872.38;;;0.02;86.47
83631;BME280;73593;52.134;5.426;2024-03-08T02:38:31;101879.31;;;0.02;86.64
83631;BME280;73593;52.134;5.426;2024-03-08T02:40:58;101865.47;;;-0.01;86.97
83631;BME280;73593;52.134;5.426;2024-03-08T02:43:25;101868.13;;;-0.04;86.28
83631;BME280;73593;52.134;5.426;2024-03-08T02:45:54;101859.53;;;-0.07;86.90
83631;BME280;73593;52.134;5.426;2024-03-08T02:48:21;101855.22;;;-0.08;86.69
83631;BME280;73593;52.134;5.426;2024-03-08T02:50:49;101858.75;;;-0.11;86.89
83631;BME280;73593;52.134;5.426;2024-03-08T02:53:18;101850.09;;;-0.13;86.77
83631;BME280;73593;52.134;5.426;2024-03-08T02:55:45;101854.47;;;-0.15;86.94
83631;BME280;73593;52.134;5.426;2024-03-08T02:58:15;101840.66;;;-0.17;86.58
83631;BME280;73593;52.134;5.426;2024-03-08T03:00:45;101842.41;;;-0.17;86.91
83631;BME280;73593;52.134;5.426;2024-03-08T03:03:14;101839.81;;;-0.19;86.56
83631;BME280;73593;52.134;5.426;2024-03-08T03:05:42;101839.03;;;-0.22;86.59
83631;BME280;73593;52.134;5.426;2024-03-08T03:08:15;101839.94;;;-0.25;86.51
83631;BME280;73593;52.134;5.426;2024-03-08T03:10:44;101839.13;;;-0.27;86.75
83631;BME280;73593;52.134;5.426;2024-03-08T03:13:12;101834.78;;;-0.28;86.78
83631;BME280;73593;52.134;5.426;2024-03-08T03:15:41;101833.09;;;-0.29;86.86
83631;BME280;73593;52.134;5.426;2024-03-08T03:18:08;101825.28;;;-0.29;86.69
83631;BME280;73593;52.134;5.426;2024-03-08T03:20:38;101830.53;;;-0.32;86.78
83631;BME280;73593;52.134;5.426;2024-03-08T03:23:09;101830.59;;;-0.35;86.18
83631;BME280;73593;52.134;5.426;2024-03-08T03:25:40;101815.03;;;-0.38;86.74
83631;BME280;73593;52.134;5.426;2024-03-08T03:28:08;101820.28;;;-0.40;86.50
83631;BME280;73593;52.134;5.426;2024-03-08T03:30:40;101818.63;;;-0.42;86.48
83631;BME280;73593;52.134;5.426;2024-03-08T03:33:11;101816.91;;;-0.45;86.69
83631;BME280;73593;52.134;5.426;2024-03-08T03:35:39;101816.06;;;-0.45;86.44
83631;BME280;73593;52.134;5.426;2024-03-08T03:38:10;101811.78;;;-0.48;86.58
83631;BME280;73593;52.134;5.426;2024-03-08T03:40:38;101810.09;;;-0.50;86.75
83631;BME280;73593;52.134;5.426;2024-03-08T03:43:08;101807.47;;;-0.50;86.60
83631;BME280;73593;52.134;5.426;2024-03-08T03:45:36;101809.22;;;-0.51;86.32
83631;BME280;73593;52.134;5.426;2024-03-08T03:48:05;101807.47;;;-0.50;86.81
83631;BME280;73593;52.134;5.426;2024-03-08T03:50:37;101803.16;;;-0.51;86.76
83631;BME280;73593;52.134;5.426;2024-03-08T03:53:05;101807.47;;;-0.50;86.64
83631;BME280;73593;52.134;5.426;2024-03-08T03:55:38;101804.88;;;-0.50;86.57
83631;BME280;73593;52.134;5.426;2024-03-08T03:58:07;101803.97;;;-0.49;86.59
83631;BME280;73593;52.134;5.426;2024-03-08T04:00:34;101804.91;;;-0.52;86.42
83631;BME280;73593;52.134;5.426;2024-03-08T04:03:03;101808.41;;;-0.53;86.73
83631;BME280;73593;52.134;5.426;2024-03-08T04:05:30;101793.69;;;-0.54;86.50
83631;BME280;73593;52.134;5.426;2024-03-08T04:07:58;101800.59;;;-0.53;86.60
83631;BME280;73593;52.134;5.426;2024-03-08T04:10:27;101799.75;;;-0.53;86.54
83631;BME280;73593;52.134;5.426;2024-03-08T04:12:54;101797.19;;;-0.55;86.32
83631;BME280;73593;52.134;5.426;2024-03-08T04:15:20;101790.25;;;-0.56;86.33
83631;BME280;73593;52.134;5.426;2024-03-08T04:17:47;101791.13;;;-0.57;86.85
83631;BME280;73593;52.134;5.426;2024-03-08T04:20:16;101786.84;;;-0.58;86.80
83631;BME280;73593;52.134;5.426;2024-03-08T04:22:44;101786.84;;;-0.58;86.44
83631;BME280;73593;52.134;5.426;2024-03-08T04:25:18;101787.72;;;-0.59;86.26
83631;BME280;73593;52.134;5.426;2024-03-08T04:27:47;101778.22;;;-0.60;86.59
83631;BME280;73593;52.134;5.426;2024-03-08T04:30:16;101779.97;;;-0.61;86.45
83631;BME280;73593;52.134;5.426;2024-03-08T04:32:45;101780.81;;;-0.62;86.67
83631;BME280;73593;52.134;5.426;2024-03-08T04:35:12;101784.31;;;-0.63;86.43
83631;BME280;73593;52.134;5.426;2024-03-08T04:37:42;101775.69;;;-0.65;86.08
83631;BME280;73593;52.134;5.426;2024-03-08T04:40:11;101780.09;;;-0.68;86.20
83631;BME280;73593;52.134;5.426;2024-03-08T04:42:39;101774.03;;;-0.69;86.50
83631;BME280;73593;52.134;5.426;2024-03-08T04:45:09;101774.03;;;-0.67;86.32
83631;BME280;73593;52.134;5.426;2024-03-08T04:47:38;101772.28;;;-0.67;86.24
83631;BME280;73593;52.134;5.426;2024-03-08T04:50:05;101766.22;;;-0.69;86.15
83631;BME280;73593;52.134;5.426;2024-03-08T04:52:32;101770.53;;;-0.68;86.24
83631;BME280;73593;52.134;5.426;2024-03-08T04:55:01;101766.22;;;-0.69;85.99
83631;BME280;73593;52.134;5.426;2024-03-08T04:57:33;101765.34;;;-0.68;86.36
83631;BME280;73593;52.134;5.426;2024-03-08T05:00:03;101763.63;;;-0.69;86.19
83631;BME280;73593;52.134;5.426;2024-03-08T05:02:38;101768.91;;;-0.72;85.98
83631;BME280;73593;52.134;5.426;2024-03-08T05:05:05;101765.44;;;-0.72;86.05
83631;BME280;73593;52.134;5.426;2024-03-08T05:07:32;101755.06;;;-0.74;86.41
83631;BME280;73593;52.134;5.426;2024-03-08T05:09:59;101755.09;;;-0.75;86.58
83631;BME280;73593;52.134;5.426;2024-03-08T05:12:26;101757.69;;;-0.75;86.15
83631;BME280;73593;52.134;5.426;2024-03-08T05:14:53;101757.66;;;-0.72;86.17
83631;BME280;73593;52.134;5.426;2024-03-08T05:17:20;101759.41;;;-0.74;86.00
83631;BME280;73593;52.134;5.426;2024-03-08T05:19:49;101758.59;;;-0.76;86.45
83631;BME280;73593;52.134;5.426;2024-03-08T05:22:16;101758.66;;;-0.79;85.80
83631;BME280;73593;52.134;5.426;2024-03-08T05:24:46;101758.66;;;-0.81;86.15
83631;BME280;73593;52.134;5.426;2024-03-08T05:27:13;101750.03;;;-0.83;86.43
83631;BME280;73593;52.134;5.426;2024-03-08T05:29:42;101757.00;;;-0.84;86.06
83631;BME280;73593;52.134;5.426;2024-03-08T05:32:09;101748.38;;;-0.86;86.46
83631;BME280;73593;52.134;5.426;2024-03-08T05:34:36;101751.84;;;-0.87;86.02
83631;BME280;73593;52.134;5.426;2024-03-08T05:37:04;101752.72;;;-0.88;86.14
83631;BME280;73593;52.134;5.426;2024-03-08T05:39:30;101748.41;;;-0.89;86.37
83631;BME280;73593;52.134;5.426;2024-03-08T05:41:57;101749.31;;;-0.90;85.90
83631;BME280;73593;52.134;5.426;2024-03-08T05:44:24;101745.88;;;-0.92;86.23
83631;BME280;73593;52.134;5.426;2024-03-08T05:46:51;101746.75;;;-0.91;86.78
83631;BME280;73593;52.134;5.426;2024-03-08T05:49:18;101745.00;;;-0.92;86.10
83631;BME280;73593;52.134;5.426;2024-03-08T05:51:44;101746.78;;;-0.94;86.56
83631;BME280;73593;52.134;5.426;2024-03-08T05:54:12;101737.28;;;-0.95;86.09
83631;BME280;73593;52.134;5.426;2024-03-08T05:56:47;101739.03;;;-0.96;86.22
83631;BME280;73593;52.134;5.426;2024-03-08T05:59:16;101729.53;;;-0.97;85.92
83631;BME280;73593;52.134;5.426;2024-03-08T06:01:46;101731.22;;;-0.96;86.06
83631;BME280;73593;52.134;5.426;2024-03-08T06:04:13;101726.91;;;-0.97;86.10
83631;BME280;73593;52.134;5.426;2024-03-08T06:06:40;101717.38;;;-0.96;86.42
83631;BME280;73593;52.134;5.426;2024-03-08T06:09:08;101722.53;;;-0.95;86.26
83631;BME280;73593;52.134;5.426;2024-03-08T06:11:45;101720.78;;;-0.94;86.61
83631;BME280;73593;52.134;5.426;2024-03-08T06:14:14;101723.38;;;-0.94;86.03
83631;BME280;73593;52.134;5.426;2024-03-08T06:16:48;101719.94;;;-0.95;86.65
83631;BME280;73593;52.134;5.426;2024-03-08T06:19:18;101725.09;;;-0.92;86.63
83631;BME280;73593;52.134;5.426;2024-03-08T06:21:45;101725.91;;;-0.90;85.86
83631;BME280;73593;52.134;5.426;2024-03-08T06:24:12;101712.88;;;-0.88;86.36
83631;BME280;73593;52.134;5.426;2024-03-08T06:26:39;101715.47;;;-0.88;86.14
83631;BME280;73593;52.134;5.426;2024-03-08T06:29:08;101719.78;;;-0.87;85.88
83631;BME280;73593;52.134;5.426;2024-03-08T06:31:35;101718.91;;;-0.86;85.91
83631;BME280;73593;52.134;5.426;2024-03-08T06:34:06;101718.88;;;-0.85;85.74
83631;BME280;73593;52.134;5.426;2024-03-08T06:36:35;101722.31;;;-0.83;86.02
83631;BME280;73593;52.134;5.426;2024-03-08T06:39:07;101720.53;;;-0.81;86.22
83631;BME280;73593;52.134;5.426;2024-03-08T06:41:40;101721.34;;;-0.77;86.10
83631;BME280;73593;52.134;5.426;2024-03-08T06:44:07;101716.94;;;-0.75;86.01
83631;BME280;73593;52.134;5.426;2024-03-08T06:46:35;101706.47;;;-0.70;86.18
83631;BME280;73593;52.134;5.426;2024-03-08T06:49:02;101708.13;;;-0.66;86.03
83631;BME280;73593;52.134;5.426;2024-03-08T06:51:29;101711.53;;;-0.64;85.75
83631;BME280;73593;52.134;5.426;2024-03-08T06:53:59;101711.44;;;-0.60;85.52
83631;BME280;73593;52.134;5.426;2024-03-08T06:56:26;101707.91;;;-0.57;85.31
83631;BME280;73593;52.134;5.426;2024-03-08T06:58:55;101706.94;;;-0.51;85.82
83631;BME280;73593;52.134;5.426;2024-03-08T07:01:24;101707.75;;;-0.48;85.78
83631;BME280;73593;52.134;5.426;2024-03-08T07:03:51;101718.03;;;-0.42;85.19
83631;BME280;73593;52.134;5.426;2024-03-08T07:06:19;101713.59;;;-0.37;85.19
83631;BME280;73593;52.134;5.426;2024-03-08T07:08:49;101706.50;;;-0.30;85.20
83631;BME280;73593;52.134;5.426;2024-03-08T07:11:15;101703.72;;;-0.22;85.42
83631;BME280;73593;52.134;5.426;2024-03-08T07:13:47;101701.84;;;-0.16;84.97
83631;BME280;73593;52.134;5.426;2024-03-08T07:16:16;101701.63;;;-0.07;85.09
83631;BME280;73593;52.134;5.426;2024-03-08T07:18:45;101698.88;;;-0.01;84.62
83631;BME280;73593;52.134;5.426;2024-03-08T07:21:12;101696.06;;;0.09;84.46
83631;BME280;73593;52.134;5.426;2024-03-08T07:23:39;101701.94;;;0.17;83.94
83631;BME280;73593;52.134;5.426;2024-03-08T07:26:24;101693.03;;;0.27;84.50
83631;BME280;73593;52.134;5.426;2024-03-08T07:28:52;101691.06;;;0.35;84.41
83631;BME280;73593;52.134;5.426;2024-03-08T07:31:21;101685.66;;;0.43;84.21
83631;BME280;73593;52.134;5.426;2024-03-08T07:33:57;101681.16;;;0.51;84.13
83631;BME280;73593;52.134;5.426;2024-03-08T07:36:25;101681.00;;;0.57;83.75
83631;BME280;73593;52.134;5.426;2024-03-08T07:38:54;101685.09;;;0.66;83.43
83631;BME280;73593;52.134;5.426;2024-03-08T07:41:21;101681.34;;;0.76;83.49
83631;BME280;73593;52.134;5.426;2024-03-08T07:43:52;101674.22;;;0.83;83.06
83631;BME280;73593;52.134;5.426;2024-03-08T07:46:21;101673.13;;;0.91;82.76
83631;BME280;73593;52.134;5.426;2024-03-08T07:48:48;101672.81;;;1.02;82.91
83631;BME280;73593;52.134;5.426;2024-03-08T07:51:18;101667.38;;;1.11;82.50
83631;BME280;73593;52.134;5.426;2024-03-08T07:53:45;101669.69;;;1.20;82.29
83631;BME280;73593;52.134;5.426;2024-03-08T07:56:15;101660.78;;;1.29;81.99
83631;BME280;73593;52.134;5.426;2024-03-08T07:58:44;101664.06;;;1.36;81.79
83631;BME280;73593;52.134;5.426;2024-03-08T08:01:17;101656.00;;;1.43;81.48
83631;BME280;73593;52.134;5.426;2024-03-08T08:03:45;101654.91;;;1.50;81.12
83631;BME280;73593;52.134;5.426;2024-03-08T08:06:15;101652.91;;;1.60;81.05
83631;BME280;73593;52.134;5.426;2024-03-08T08:08:46;101652.59;;;1.69;80.86
83631;BME280;73593;52.134;5.426;2024-03-08T08:11:18;101650.69;;;1.74;79.98
83631;BME280;73593;52.134;5.426;2024-03-08T08:13:47;101653.06;;;1.82;79.96
83631;BME280;73593;52.134;5.426;2024-03-08T08:16:14;101646.75;;;1.89;79.68
83631;BME280;73593;52.134;5.426;2024-03-08T08:18:41;101641.31;;;1.95;79.66
83631;BME280;73593;52.134;5.426;2024-03-08T08:21:07;101641.91;;;2.05;79.46
83631;BME280;73593;52.134;5.426;2024-03-08T08:23:34;101638.19;;;2.12;79.32
83631;BME280;73593;52.134;5.426;2024-03-08T08:26:01;101635.31;;;2.20;78.87
83631;BME280;73593;52.134;5.426;2024-03-08T08:28:31;101623.81;;;2.25;78.14
83631;BME280;73593;52.134;5.426;2024-03-08T08:31:00;101633.97;;;2.33;78.46
83631;BME280;73593;52.134;5.426;2024-03-08T08:33:27;101630.22;;;2.41;77.79
83631;BME280;73593;52.134;5.426;2024-03-08T08:35:58;101624.78;;;2.48;77.85
83631;BME280;73593;52.134;5.426;2024-03-08T08:38:25;101630.59;;;2.56;77.59
83631;BME280;73593;52.134;5.426;2024-03-08T08:40:51;101628.56;;;2.64;77.18
83631;BME280;73593;52.134;5.426;2024-03-08T08:43:19;101618.75;;;2.71;77.21
83631;BME280;73593;52.134;5.426;2024-03-08T08:45:50;101607.22;;;2.76;76.76
83631;BME280;73593;52.134;5.426;2024-03-08T08:48:19;101610.41;;;2.84;76.70
83631;BME280;73593;52.134;5.426;2024-03-08T08:50:46;101606.53;;;2.94;76.59
83631;BME280;73593;52.134;5.426;2024-03-08T08:53:15;101609.00;;;2.99;76.17
83631;BME280;73593;52.134;5.426;2024-03-08T08:55:43;101600.91;;;3.05;75.88
83631;BME280;73593;52.134;5.426;2024-03-08T08:58:12;101605.88;;;3.13;75.54
83631;BME280;73593;52.134;5.426;2024-03-08T09:00:40;101596.75;;;3.23;75.59
83631;BME280;73593;52.134;5.426;2024-03-08T09:03:07;101593.84;;;3.31;75.27
83631;BME280;73593;52.134;5.426;2024-03-08T09:05:33;101597.09;;;3.37;75.20
83631;BME280;73593;52.134;5.426;2024-03-08T09:08:05;101589.91;;;3.42;74.88
83631;BME280;73593;52.134;5.426;2024-03-08T09:10:31;101592.28;;;3.48;74.53
83631;BME280;73593;52.134;5.426;2024-03-08T09:13:01;101581.47;;;3.58;74.82
83631;BME280;73593;52.134;5.426;2024-03-08T09:15:30;101582.00;;;3.66;74.53
83631;BME280;73593;52.134;5.426;2024-03-08T09:17:57;101572.97;;;3.73;73.93
83631;BME280;73593;52.134;5.426;2024-03-08T09:20:25;101570.00;;;3.82;73.85
83631;BME280;73593;52.134;5.426;2024-03-08T09:22:53;101573.16;;;3.90;73.81
83631;BME280;73593;52.134;5.426;2024-03-08T09:25:20;101565.97;;;3.95;73.25
83631;BME280;73593;52.134;5.426;2024-03-08T09:27:49;101563.75;;;4.07;73.38
83631;BME280;73593;52.134;5.426;2024-03-08T09:30:19;101563.34;;;4.16;73.07
83631;BME280;73593;52.134;5.426;2024-03-08T09:32:50;101554.19;;;4.26;73.21
83631;BME280;73593;52.134;5.426;2024-03-08T09:35:18;101558.16;;;4.35;72.90
83631;BME280;73593;52.134;5.426;2024-03-08T09:37:45;101542.06;;;4.44;72.88
83631;BME280;73593;52.134;5.426;2024-03-08T09:40:14;101540.78;;;4.52;72.29
83631;BME280;73593;52.134;5.426;2024-03-08T09:42:42;101544.72;;;4.63;72.17
83631;BME280;73593;52.134;5.426;2024-03-08T09:45:12;101533.03;;;4.70;72.30
83631;BME280;73593;52.134;5.426;2024-03-08T09:47:44;101524.81;;;4.77;71.40
83631;BME280;73593;52.134;5.426;2024-03-08T09:50:12;101524.31;;;4.88;71.54
83631;BME280;73593;52.134;5.426;2024-03-08T09:52:48;101516.25;;;4.93;71.04
83631;BME280;73593;52.134;5.426;2024-03-08T09:55:21;101508.00;;;5.00;70.81
83631;BME280;73593;52.134;5.426;2024-03-08T09:57:51;101511.13;;;5.08;71.13
83631;BME280;73593;52.134;5.426;2024-03-08T10:00:38;101509.94;;;5.16;70.87
83631;BME280;73593;52.134;5.426;2024-03-08T10:03:05;101502.44;;;5.25;70.48
83631;BME280;73593;52.134;5.426;2024-03-08T10:05:32;101502.78;;;5.36;70.50
83631;BME280;73593;52.134;5.426;2024-03-08T10:08:02;101500.63;;;5.45;70.59
83631;BME280;73593;52.134;5.426;2024-03-08T10:10:29;101496.72;;;5.53;70.01
83631;BME280;73593;52.134;5.426;2024-03-08T10:12:56;101485.97;;;5.58;69.76
83631;BME280;73593;52.134;5.426;2024-03-08T10:15:29;101491.63;;;5.68;69.39
83631;BME280;73593;52.134;5.426;2024-03-08T10:17:56;101478.09;;;5.75;69.08
83631;BME280;73593;52.134;5.426;2024-03-08T10:20:24;101481.28;;;5.82;68.93
83631;BME280;73593;52.134;5.426;2024-03-08T10:22:53;101469.47;;;5.90;68.59
83631;BME280;73593;52.134;5.426;2024-03-08T10:25:36;101473.41;;;5.99;68.71
83631;BME280;73593;52.134;5.426;2024-03-08T10:28:05;101459.09;;;6.05;68.39
83631;BME280;73593;52.134;5.426;2024-03-08T10:30:35;101458.56;;;6.15;68.09
83631;BME280;73593;52.134;5.426;2024-03-08T10:33:04;101460.03;;;6.21;67.95
83631;BME280;73593;52.134;5.426;2024-03-08T10:35:34;101454.50;;;6.26;67.91
83631;BME280;73593;52.134;5.426;2024-03-08T10:38:04;101443.31;;;6.38;68.04
83631;BME280;73593;52.134;5.426;2024-03-08T10:40:38;101446.50;;;6.44;67.90
83631;BME280;73593;52.134;5.426;2024-03-08T10:43:17;101436.41;;;6.53;67.38
83631;BME280;73593;52.134;5.426;2024-03-08T10:45:46;101432.41;;;6.61;67.11
83631;BME280;73593;52.134;5.426;2024-03-08T10:51:04;101422.00;;;6.76;66.58
83631;BME280;73593;52.134;5.426;2024-03-08T10:53:33;101418.16;;;6.81;65.88
83631;BME280;73593;52.134;5.426;2024-03-08T10:56:00;101409.06;;;6.87;66.11
83631;BME280;73593;52.134;5.426;2024-03-08T10:58:29;101411.28;;;6.94;66.01
83631;BME280;73593;52.134;5.426;2024-03-08T11:00:57;101403.81;;;7.03;66.08
83631;BME280;73593;52.134;5.426;2024-03-08T11:03:49;101395.66;;;7.07;65.78
83631;BME280;73593;52.134;5.426;2024-03-08T11:09:30;101378.38;;;7.17;64.65
83631;BME280;73593;52.134;5.426;2024-03-08T11:12:24;101377.84;;;7.26;64.45
83631;BME280;73593;52.134;5.426;2024-03-08T11:15:10;101375.72;;;7.33;64.45
83631;BME280;73593;52.134;5.426;2024-03-08T11:17:44;101370.25;;;7.36;63.57
83631;BME280;73593;52.134;5.426;2024-03-08T11:20:20;101360.59;;;7.37;63.78
83631;BME280;73593;52.134;5.426;2024-03-08T11:23:00;101353.22;;;7.42;64.05
83631;BME280;73593;52.134;5.426;2024-03-08T11:25:35;101342.16;;;7.51;63.82
83631;BME280;73593;52.134;5.426;2024-03-08T11:28:20;101331.06;;;7.60;63.89
83631;BME280;73593;52.134;5.426;2024-03-08T11:33:32;101322.25;;;7.75;62.76
83631;BME280;73593;52.134;5.426;2024-03-08T11:38:41;101313.19;;;7.94;62.68
83631;BME280;73593;52.134;5.426;2024-03-08T11:41:13;101313.00;;;7.97;62.39
83631;BME280;73593;52.134;5.426;2024-03-08T11:43:47;101305.53;;;8.03;62.44
83631;BME280;73593;52.134;5.426;2024-03-08T11:46:16;101301.69;;;8.09;62.28
83631;BME280;73593;52.134;5.426;2024-03-08T11:48:47;101296.78;;;8.17;62.16
83631;BME280;73593;52.134;5.426;2024-03-08T11:51:17;101292.91;;;8.23;61.49
83631;BME280;73593;52.134;5.426;2024-03-08T11:53:45;101293.16;;;8.32;61.41
83631;BME280;73593;52.134;5.426;2024-03-08T11:56:15;101284.78;;;8.40;61.28
83631;BME280;73593;52.134;5.426;2024-03-08T11:58:55;101285.16;;;8.48;60.30
83631;BME280;73593;52.134;5.426;2024-03-08T12:01:25;101279.94;;;8.47;59.49
83631;BME280;73593;52.134;5.426;2024-03-08T12:03:53;101269.59;;;8.44;58.42
83631;BME280;73593;52.134;5.426;2024-03-08T12:06:20;101273.94;;;8.45;58.07
83631;BME280;73593;52.134;5.426;2024-03-08T12:08:47;101268.25;;;8.51;58.14
83631;BME280;73593;52.134;5.426;2024-03-08T12:11:20;101266.47;;;8.51;57.96
83631;BME280;73593;52.134;5.426;2024-03-08T12:13:51;101253.72;;;8.58;58.30
83631;BME280;73593;52.134;5.426;2024-03-08T12:16:18;101252.69;;;8.60;57.97
83631;BME280;73593;52.134;5.426;2024-03-08T12:18:50;101250.66;;;8.64;57.25
83631;BME280;73593;52.134;5.426;2024-03-08T12:21:18;101253.97;;;8.68;57.55
83631;BME280;73593;52.134;5.426;2024-03-08T12:24:12;101251.09;;;8.71;56.85
83631;BME280;73593;52.134;5.426;2024-03-08T12:26:43;101246.19;;;8.79;56.51
83631;BME280;73593;52.134;5.426;2024-03-08T12:29:22;101235.53;;;8.80;56.38
83631;BME280;73593;52.134;5.426;2024-03-08T12:31:52;101235.94;;;8.87;56.77
83631;BME280;73593;52.134;5.426;2024-03-08T12:34:25;101232.91;;;8.93;56.92
83631;BME280;73593;52.134;5.426;2024-03-08T12:36:54;101213.16;;;8.99;56.08
83631;BME280;73593;52.134;5.426;2024-03-08T12:39:23;101218.44;;;8.99;55.81
83631;BME280;73593;52.134;5.426;2024-03-08T12:41:54;101213.34;;;8.96;55.88
83631;BME280;73593;52.134;5.426;2024-03-08T12:44:21;101209.88;;;8.95;55.56
83631;BME280;73593;52.134;5.426;2024-03-08T12:46:48;101207.56;;;8.91;55.42
83631;BME280;73593;52.134;5.426;2024-03-08T12:49:21;101197.06;;;8.89;55.07
83631;BME280;73593;52.134;5.426;2024-03-08T12:51:53;101193.41;;;8.92;55.38
83631;BME280;73593;52.134;5.426;2024-03-08T12:54:23;101203.44;;;8.99;55.82
83631;BME280;73593;52.134;5.426;2024-03-08T12:56:50;101194.88;;;8.96;54.96
83631;BME280;73593;52.134;5.426;2024-03-08T12:59:20;101197.19;;;9.00;55.60
83631;BME280;73593;52.134;5.426;2024-03-08T13:01:48;101191.31;;;8.97;55.58
83631;BME280;73593;52.134;5.426;2024-03-08T13:04:18;101195.31;;;9.02;54.91
83631;BME280;73593;52.134;5.426;2024-03-08T13:06:48;101181.16;;;9.03;54.78
83631;BME280;73593;52.134;5.426;2024-03-08T13:09:23;101182.63;;;9.07;55.10
83631;BME280;73593;52.134;5.426;2024-03-08T13:11:50;101176.41;;;9.08;54.88
83631;BME280;73593;52.134;5.426;2024-03-08T13:14:19;101186.88;;;9.10;55.19
83631;BME280;73593;52.134;5.426;2024-03-08T13:16:47;101160.44;;;9.10;55.16
83631;BME280;73593;52.134;5.426;2024-03-08T13:19:15;101167.19;;;9.14;54.92